WXM80 ListenWXM80 Stop

You find our weather info also at:

UK Metoffice

WeatherCloud

Weather Underground

Northeastern Weather Network

AWEKAS

Citizen Weather Observer Program (CWOP)

HAMweather, WeatherForYou, PWS Weather


Weather Underground History page Text

Daily Summary for March 25, 2017 Units:  Both    English   Metric
« Previous Day
Next Day »
Daily Weekly Monthly Yearly Custom
  High: Low: Average:
Temperature: 53.2 °F /  11.8 °C 39.9 °F /  4.4 °C 46.9 °F /  8.3 °C
Dew Point: 42.8 °F /  6 °C 37.4 °F /  3 °C 39.6 °F /  4.2 °C
Humidity: 91 % 64 % 76 %
Wind Speed: 9.5 mph /  15.3 km/h - 3.3 mph /  5.3 km/h
Wind Gust: 15.0 mph /  24.1 km/h - -
Wind:- - ESE
Pressure: 30.38 in /  1028.7 hPa 30.02 in /  1016.5 hPa -
Precipitation: 0.00 in /  0 mm    
Historical Graphs
 
 
Tabular Data for March 25, 2017
Time Temperature Dew Point Pressure Wind Wind Speed Wind Gust Humidity Rainfall Rate (Hourly)
00:02 49.2 °F /  9.6 °C 38.7 °F /  3.7 °C 30.07 in /  1018.2 hPa SSW 6.0 mph /  9.7 km/h 12.0 mph /  19.3 km/h 67 % 0.00 in /  0 mm
00:07 49.2 °F /  9.6 °C 38.7 °F /  3.7 °C 30.07 in /  1018.2 hPa WSW 4.9 mph /  7.9 km/h 8.0 mph /  12.9 km/h 67 % 0.00 in /  0 mm
00:12 49.3 °F /  9.6 °C 38.8 °F /  3.8 °C 30.06 in /  1017.8 hPa SSW 6.0 mph /  9.7 km/h 12.0 mph /  19.3 km/h 67 % 0.00 in /  0 mm
00:17 49.4 °F /  9.7 °C 38.5 °F /  3.6 °C 30.06 in /  1017.8 hPa WSW 8.3 mph /  13.4 km/h 10.0 mph /  16.1 km/h 66 % 0.00 in /  0 mm
00:19 49.4 °F /  9.7 °C 38.5 °F /  3.6 °C 30.06 in /  1017.8 hPa SW 7.2 mph /  11.6 km/h 10.4 mph /  16.7 km/h 66 % 0.00 in /  0 mm
00:24 49.6 °F /  9.8 °C 38.7 °F /  3.7 °C 30.06 in /  1017.8 hPa SW 5.1 mph /  8.2 km/h 10.4 mph /  16.7 km/h 66 % 0.00 in /  0 mm
00:29 49.6 °F /  9.8 °C 38.7 °F /  3.7 °C 30.06 in /  1017.8 hPa West 5.0 mph /  8 km/h 9.2 mph /  14.8 km/h 66 % 0.00 in /  0 mm
00:34 49.7 °F /  9.8 °C 38.4 °F /  3.6 °C 30.06 in /  1017.8 hPa SW 3.4 mph /  5.5 km/h 12.7 mph /  20.4 km/h 65 % 0.00 in /  0 mm
00:40 49.8 °F /  9.9 °C 38.5 °F /  3.6 °C 30.05 in /  1017.5 hPa SSW 4.0 mph /  6.4 km/h 11.5 mph /  18.5 km/h 65 % 0.00 in /  0 mm
00:45 49.9 °F /  9.9 °C 38.6 °F /  3.7 °C 30.05 in /  1017.5 hPa SSW 4.9 mph /  7.9 km/h 15.0 mph /  24.1 km/h 65 % 0.00 in /  0 mm
00:50 50.0 °F /  10 °C 38.3 °F /  3.5 °C 30.05 in /  1017.5 hPa SSW 5.2 mph /  8.4 km/h 9.2 mph /  14.8 km/h 64 % 0.00 in /  0 mm
00:55 50.1 °F /  10.1 °C 38.4 °F /  3.6 °C 30.05 in /  1017.5 hPa SSW 4.3 mph /  6.9 km/h 11.5 mph /  18.5 km/h 64 % 0.00 in /  0 mm
01:00 50.1 °F /  10.1 °C 38.4 °F /  3.6 °C 30.04 in /  1017.2 hPa SSW 3.5 mph /  5.6 km/h 6.9 mph /  11.1 km/h 64 % 0.00 in /  0 mm
01:05 50.1 °F /  10.1 °C 38.4 °F /  3.6 °C 30.05 in /  1017.5 hPa SW 3.4 mph /  5.5 km/h 6.9 mph /  11.1 km/h 64 % 0.00 in /  0 mm
01:10 50.1 °F /  10.1 °C 38.4 °F /  3.6 °C 30.05 in /  1017.5 hPa SW 5.5 mph /  8.9 km/h 9.2 mph /  14.8 km/h 64 % 0.00 in /  0 mm
01:15 50.1 °F /  10.1 °C 38.4 °F /  3.6 °C 30.04 in /  1017.2 hPa SSW 7.1 mph /  11.4 km/h 11.5 mph /  18.5 km/h 64 % 0.00 in /  0 mm
01:25 50.1 °F /  10.1 °C 38.4 °F /  3.6 °C 30.05 in /  1017.5 hPa SW 5.7 mph /  9.2 km/h 8.1 mph /  13 km/h 64 % 0.00 in /  0 mm
01:30 50.1 °F /  10.1 °C 38.4 °F /  3.6 °C 30.05 in /  1017.5 hPa SW 5.2 mph /  8.4 km/h 7.0 mph /  11.3 km/h 64 % 0.00 in /  0 mm
01:35 50.0 °F /  10 °C 38.3 °F /  3.5 °C 30.05 in /  1017.5 hPa WSW 2.5 mph /  4 km/h 6.0 mph /  9.7 km/h 64 % 0.00 in /  0 mm
01:40 50.1 °F /  10.1 °C 38.4 °F /  3.6 °C 30.05 in /  1017.5 hPa SW 7.0 mph /  11.3 km/h 11.5 mph /  18.5 km/h 64 % 0.00 in /  0 mm
01:45 50.1 °F /  10.1 °C 38.4 °F /  3.6 °C 30.05 in /  1017.5 hPa SW 6.4 mph /  10.3 km/h 11.0 mph /  17.7 km/h 64 % 0.00 in /  0 mm
01:50 50.1 °F /  10.1 °C 38.4 °F /  3.6 °C 30.05 in /  1017.5 hPa WSW 5.3 mph /  8.5 km/h 11.0 mph /  17.7 km/h 64 % 0.00 in /  0 mm
01:55 50.2 °F /  10.1 °C 38.5 °F /  3.6 °C 30.05 in /  1017.5 hPa SW 7.2 mph /  11.6 km/h 11.5 mph /  18.5 km/h 64 % 0.00 in /  0 mm
02:00 50.3 °F /  10.2 °C 38.6 °F /  3.7 °C 30.05 in /  1017.5 hPa SW 5.8 mph /  9.3 km/h 11.5 mph /  18.5 km/h 64 % 0.00 in /  0 mm
02:05 50.3 °F /  10.2 °C 38.6 °F /  3.7 °C 30.04 in /  1017.2 hPa SW 6.8 mph /  10.9 km/h 9.2 mph /  14.8 km/h 64 % 0.00 in /  0 mm
02:10 50.2 °F /  10.1 °C 38.5 °F /  3.6 °C 30.05 in /  1017.5 hPa SW 4.1 mph /  6.6 km/h 7.0 mph /  11.3 km/h 64 % 0.00 in /  0 mm
02:15 50.2 °F /  10.1 °C 38.9 °F /  3.8 °C 30.04 in /  1017.2 hPa SW 5.2 mph /  8.4 km/h 6.9 mph /  11.1 km/h 65 % 0.00 in /  0 mm
02:20 50.1 °F /  10.1 °C 38.8 °F /  3.8 °C 30.04 in /  1017.2 hPa SSW 5.4 mph /  8.7 km/h 10.4 mph /  16.7 km/h 65 % 0.00 in /  0 mm
02:30 50.0 °F /  10 °C 38.7 °F /  3.7 °C 30.04 in /  1017.2 hPa SSW 3.4 mph /  5.5 km/h 6.9 mph /  11.1 km/h 65 % 0.00 in /  0 mm
02:35 49.9 °F /  9.9 °C 38.6 °F /  3.7 °C 30.04 in /  1017.2 hPa SW 4.6 mph /  7.4 km/h 8.1 mph /  13 km/h 65 % 0.00 in /  0 mm
02:40 49.9 °F /  9.9 °C 39.0 °F /  3.9 °C 30.04 in /  1017.2 hPa SSW 4.0 mph /  6.4 km/h 6.9 mph /  11.1 km/h 66 % 0.00 in /  0 mm
02:45 49.9 °F /  9.9 °C 39.0 °F /  3.9 °C 30.04 in /  1017.2 hPa SW 1.9 mph /  3.1 km/h 5.8 mph /  9.3 km/h 66 % 0.00 in /  0 mm
02:50 49.8 °F /  9.9 °C 38.9 °F /  3.8 °C 30.04 in /  1017.2 hPa SW 1.0 mph /  1.6 km/h 5.0 mph /  8 km/h 66 % 0.00 in /  0 mm
02:55 49.8 °F /  9.9 °C 38.9 °F /  3.8 °C 30.04 in /  1017.2 hPa SW 5.9 mph /  9.5 km/h 8.1 mph /  13 km/h 66 % 0.00 in /  0 mm
03:00 49.8 °F /  9.9 °C 38.9 °F /  3.8 °C 30.04 in /  1017.2 hPa South 2.8 mph /  4.5 km/h 8.1 mph /  13 km/h 66 % 0.00 in /  0 mm
03:05 49.8 °F /  9.9 °C 38.9 °F /  3.8 °C 30.04 in /  1017.2 hPa SSW 4.6 mph /  7.4 km/h 8.1 mph /  13 km/h 66 % 0.00 in /  0 mm
03:10 49.7 °F /  9.8 °C 39.2 °F /  4 °C 30.04 in /  1017.2 hPa SSW 3.7 mph /  6 km/h 5.8 mph /  9.3 km/h 67 % 0.00 in /  0 mm
03:15 49.7 °F /  9.8 °C 39.2 °F /  4 °C 30.04 in /  1017.2 hPa SW 4.6 mph /  7.4 km/h 6.9 mph /  11.1 km/h 67 % 0.00 in /  0 mm
03:20 49.6 °F /  9.8 °C 39.1 °F /  3.9 °C 30.04 in /  1017.2 hPa SW 3.4 mph /  5.5 km/h 6.9 mph /  11.1 km/h 67 % 0.00 in /  0 mm
03:25 49.6 °F /  9.8 °C 39.1 °F /  3.9 °C 30.04 in /  1017.2 hPa SSW 2.3 mph /  3.7 km/h 4.0 mph /  6.4 km/h 67 % 0.00 in /  0 mm
03:31 49.6 °F /  9.8 °C 39.1 °F /  3.9 °C 30.03 in /  1016.8 hPa WNW 4.1 mph /  6.6 km/h 9.2 mph /  14.8 km/h 67 % 0.00 in /  0 mm
03:36 49.5 °F /  9.7 °C 39.0 °F /  3.9 °C 30.03 in /  1016.8 hPa SW 5.6 mph /  9 km/h 10.4 mph /  16.7 km/h 67 % 0.00 in /  0 mm
03:41 49.5 °F /  9.7 °C 39.0 °F /  3.9 °C 30.03 in /  1016.8 hPa SW 2.1 mph /  3.4 km/h 6.9 mph /  11.1 km/h 67 % 0.00 in /  0 mm
03:46 49.5 °F /  9.7 °C 39.0 °F /  3.9 °C 30.03 in /  1016.8 hPa South 4.4 mph /  7.1 km/h 5.8 mph /  9.3 km/h 67 % 0.00 in /  0 mm
03:51 49.5 °F /  9.7 °C 39.4 °F /  4.1 °C 30.03 in /  1016.8 hPa SW 3.5 mph /  5.6 km/h 4.6 mph /  7.4 km/h 68 % 0.00 in /  0 mm
03:56 49.5 °F /  9.7 °C 39.4 °F /  4.1 °C 30.03 in /  1016.8 hPa SW 1.5 mph /  2.4 km/h 6.9 mph /  11.1 km/h 68 % 0.00 in /  0 mm
04:01 49.5 °F /  9.7 °C 39.4 °F /  4.1 °C 30.02 in /  1016.5 hPa SW 5.5 mph /  8.9 km/h 7.0 mph /  11.3 km/h 68 % 0.00 in /  0 mm
04:06 49.5 °F /  9.7 °C 39.4 °F /  4.1 °C 30.02 in /  1016.5 hPa SW 3.3 mph /  5.3 km/h 6.9 mph /  11.1 km/h 68 % 0.00 in /  0 mm
04:11 49.6 °F /  9.8 °C 39.5 °F /  4.2 °C 30.02 in /  1016.5 hPa SW 2.3 mph /  3.7 km/h 7.0 mph /  11.3 km/h 68 % 0.00 in /  0 mm
04:16 49.7 °F /  9.8 °C 39.6 °F /  4.2 °C 30.02 in /  1016.5 hPa SW 2.6 mph /  4.2 km/h 3.5 mph /  5.6 km/h 68 % 0.00 in /  0 mm
04:21 49.7 °F /  9.8 °C 39.6 °F /  4.2 °C 30.02 in /  1016.5 hPa SW 5.6 mph /  9 km/h 7.0 mph /  11.3 km/h 68 % 0.00 in /  0 mm
04:26 49.8 °F /  9.9 °C 39.7 °F /  4.3 °C 30.02 in /  1016.5 hPa SSW 3.9 mph /  6.3 km/h 5.0 mph /  8 km/h 68 % 0.00 in /  0 mm
04:31 49.8 °F /  9.9 °C 39.7 °F /  4.3 °C 30.03 in /  1016.8 hPa WSW 0.2 mph /  0.3 km/h 3.5 mph /  5.6 km/h 68 % 0.00 in /  0 mm
04:36 49.8 °F /  9.9 °C 39.7 °F /  4.3 °C 30.03 in /  1016.8 hPa SW 4.0 mph /  6.4 km/h 4.6 mph /  7.4 km/h 68 % 0.00 in /  0 mm
04:41 49.8 °F /  9.9 °C 39.7 °F /  4.3 °C 30.03 in /  1016.8 hPa SW 3.7 mph /  6 km/h 8.1 mph /  13 km/h 68 % 0.00 in /  0 mm
04:46 49.8 °F /  9.9 °C 39.7 °F /  4.3 °C 30.03 in /  1016.8 hPa SW 1.3 mph /  2.1 km/h 3.5 mph /  5.6 km/h 68 % 0.00 in /  0 mm
04:52 49.7 °F /  9.8 °C 39.6 °F /  4.2 °C 30.03 in /  1016.8 hPa SSW 2.1 mph /  3.4 km/h 3.5 mph /  5.6 km/h 68 % 0.00 in /  0 mm
04:57 49.6 °F /  9.8 °C 39.5 °F /  4.2 °C 30.03 in /  1016.8 hPa SW 2.8 mph /  4.5 km/h 4.6 mph /  7.4 km/h 68 % 0.00 in /  0 mm
05:02 49.6 °F /  9.8 °C 39.5 °F /  4.2 °C 30.03 in /  1016.8 hPa SW 0.5 mph /  0.8 km/h 3.5 mph /  5.6 km/h 68 % 0.00 in /  0 mm
05:07 49.5 °F /  9.7 °C 39.4 °F /  4.1 °C 30.04 in /  1017.2 hPa SW 0.6 mph /  1 km/h 3.5 mph /  5.6 km/h 68 % 0.00 in /  0 mm
05:12 49.4 °F /  9.7 °C 39.7 °F /  4.3 °C 30.04 in /  1017.2 hPa WSW 0.1 mph /  0.2 km/h 3.5 mph /  5.6 km/h 69 % 0.00 in /  0 mm
05:17 49.4 °F /  9.7 °C 39.7 °F /  4.3 °C 30.05 in /  1017.5 hPa Calm   1.2 mph /  1.9 km/h 69 % 0.00 in /  0 mm
05:22 49.3 °F /  9.6 °C 39.6 °F /  4.2 °C 30.05 in /  1017.5 hPa Calm     69 % 0.00 in /  0 mm
05:27 49.2 °F /  9.6 °C 39.5 °F /  4.2 °C 30.05 in /  1017.5 hPa WSW 0.8 mph /  1.3 km/h 2.3 mph /  3.7 km/h 69 % 0.00 in /  0 mm
05:32 49.2 °F /  9.6 °C 39.5 °F /  4.2 °C 30.05 in /  1017.5 hPa SW 1.3 mph /  2.1 km/h 3.5 mph /  5.6 km/h 69 % 0.00 in /  0 mm
05:37 49.1 °F /  9.5 °C 39.7 °F /  4.3 °C 30.06 in /  1017.8 hPa SW 0.2 mph /  0.3 km/h 1.2 mph /  1.9 km/h 70 % 0.00 in /  0 mm
05:42 49.1 °F /  9.5 °C 39.7 °F /  4.3 °C 30.06 in /  1017.8 hPa Calm   1.2 mph /  1.9 km/h 70 % 0.00 in /  0 mm
05:47 49.1 °F /  9.5 °C 39.7 °F /  4.3 °C 30.06 in /  1017.8 hPa SW 0.6 mph /  1 km/h 1.2 mph /  1.9 km/h 70 % 0.00 in /  0 mm
05:52 48.9 °F /  9.4 °C 39.5 °F /  4.2 °C 30.06 in /  1017.8 hPa WSW 0.9 mph /  1.4 km/h 2.3 mph /  3.7 km/h 70 % 0.00 in /  0 mm
05:57 48.6 °F /  9.2 °C 39.6 °F /  4.2 °C 30.06 in /  1017.8 hPa WSW 0.1 mph /  0.2 km/h 1.2 mph /  1.9 km/h 71 % 0.00 in /  0 mm
06:02 48.3 °F /  9.1 °C 39.3 °F /  4.1 °C 30.06 in /  1017.8 hPa Calm     71 % 0.00 in /  0 mm
06:07 48.0 °F /  8.9 °C 39.0 °F /  3.9 °C 30.07 in /  1018.2 hPa Calm     71 % 0.00 in /  0 mm
06:12 47.5 °F /  8.6 °C 38.2 °F /  3.4 °C 30.07 in /  1018.2 hPa Calm     70 % 0.00 in /  0 mm
06:17 47.1 °F /  8.4 °C 38.2 °F /  3.4 °C 30.07 in /  1018.2 hPa Calm     71 % 0.00 in /  0 mm
06:22 46.7 °F /  8.2 °C 38.1 °F /  3.4 °C 30.07 in /  1018.2 hPa Calm     72 % 0.00 in /  0 mm
06:27 46.3 °F /  7.9 °C 38.1 °F /  3.4 °C 30.08 in /  1018.5 hPa Calm     73 % 0.00 in /  0 mm
06:32 45.8 °F /  7.7 °C 38.0 °F /  3.3 °C 30.08 in /  1018.5 hPa Calm     74 % 0.00 in /  0 mm
06:37 45.5 °F /  7.5 °C 37.7 °F /  3.2 °C 30.08 in /  1018.5 hPa Calm     74 % 0.00 in /  0 mm
06:42 45.2 °F /  7.3 °C 37.4 °F /  3 °C 30.09 in /  1018.8 hPa Calm     74 % 0.00 in /  0 mm
06:47 44.9 °F /  7.2 °C 37.8 °F /  3.2 °C 30.09 in /  1018.8 hPa Calm     76 % 0.00 in /  0 mm
06:52 44.6 °F /  7 °C 37.5 °F /  3.1 °C 30.10 in /  1019.2 hPa Calm     76 % 0.00 in /  0 mm
06:57 44.3 °F /  6.8 °C 37.5 °F /  3.1 °C 30.10 in /  1019.2 hPa Calm     77 % 0.00 in /  0 mm
07:00 44.2 °F /  6.8 °C 37.4 °F /  3 °C 30.10 in /  1019.2 hPa Calm     77 % 0.00 in /  0 mm
07:05 44.1 °F /  6.7 °C 37.7 °F /  3.2 °C 30.10 in /  1019.2 hPa WSW 0.9 mph /  1.4 km/h 2.3 mph /  3.7 km/h 78 % 0.00 in /  0 mm
07:10 43.9 °F /  6.6 °C 37.8 °F /  3.2 °C 30.10 in /  1019.2 hPa WSW 0.8 mph /  1.3 km/h 2.0 mph /  3.2 km/h 79 % 0.00 in /  0 mm
07:15 43.8 °F /  6.6 °C 38.0 °F /  3.3 °C 30.10 in /  1019.2 hPa WSW 0.2 mph /  0.3 km/h 1.2 mph /  1.9 km/h 80 % 0.00 in /  0 mm
07:20 43.7 °F /  6.5 °C 37.6 °F /  3.1 °C 30.10 in /  1019.2 hPa Calm     79 % 0.00 in /  0 mm
07:25 43.7 °F /  6.5 °C 37.6 °F /  3.1 °C 30.10 in /  1019.2 hPa Calm     79 % 0.00 in /  0 mm
07:30 43.7 °F /  6.5 °C 37.6 °F /  3.1 °C 30.10 in /  1019.2 hPa Calm     79 % 0.00 in /  0 mm
07:35 43.8 °F /  6.6 °C 38.0 °F /  3.3 °C 30.11 in /  1019.5 hPa Calm     80 % 0.00 in /  0 mm
07:40 43.8 °F /  6.6 °C 38.3 °F /  3.5 °C 30.10 in /  1019.2 hPa Calm     81 % 0.00 in /  0 mm
07:45 43.9 °F /  6.6 °C 38.4 °F /  3.6 °C 30.11 in /  1019.5 hPa Calm     81 % 0.00 in /  0 mm
07:50 44.0 °F /  6.7 °C 38.5 °F /  3.6 °C 30.10 in /  1019.2 hPa Calm     81 % 0.00 in /  0 mm
07:55 44.2 °F /  6.8 °C 38.7 °F /  3.7 °C 30.10 in /  1019.2 hPa Calm     81 % 0.00 in /  0 mm
08:00 44.3 °F /  6.8 °C 38.8 °F /  3.8 °C 30.10 in /  1019.2 hPa Calm     81 % 0.00 in /  0 mm
08:05 44.5 °F /  6.9 °C 39.0 °F /  3.9 °C 30.10 in /  1019.2 hPa Calm     81 % 0.00 in /  0 mm
08:10 44.8 °F /  7.1 °C 39.3 °F /  4.1 °C 30.11 in /  1019.5 hPa WSW 0.3 mph /  0.5 km/h 1.2 mph /  1.9 km/h 81 % 0.00 in /  0 mm
08:15 45.1 °F /  7.3 °C 39.6 °F /  4.2 °C 30.11 in /  1019.5 hPa WSW 0.4 mph /  0.6 km/h 1.2 mph /  1.9 km/h 81 % 0.00 in /  0 mm
08:20 45.5 °F /  7.5 °C 40.0 °F /  4.4 °C 30.12 in /  1019.9 hPa WSW 0.2 mph /  0.3 km/h 1.2 mph /  1.9 km/h 81 % 0.00 in /  0 mm
08:25 45.8 °F /  7.7 °C 40.3 °F /  4.6 °C 30.12 in /  1019.9 hPa Calm     81 % 0.00 in /  0 mm
08:27 45.9 °F /  7.7 °C 40.4 °F /  4.7 °C 30.12 in /  1019.9 hPa Calm   1.0 mph /  1.6 km/h 81 % 0.00 in /  0 mm
08:32 46.3 °F /  7.9 °C 40.4 °F /  4.7 °C 30.14 in /  1020.5 hPa Calm     80 % 0.00 in /  0 mm
08:37 46.6 °F /  8.1 °C 40.8 °F /  4.9 °C 30.14 in /  1020.5 hPa Calm   1.0 mph /  1.6 km/h 80 % 0.00 in /  0 mm
08:42 46.9 °F /  8.3 °C 40.7 °F /  4.8 °C 30.14 in /  1020.5 hPa Calm   1.0 mph /  1.6 km/h 79 % 0.00 in /  0 mm
08:47 47.2 °F /  8.4 °C 40.4 °F /  4.7 °C 30.13 in /  1020.2 hPa Calm   1.0 mph /  1.6 km/h 77 % 0.00 in /  0 mm
08:52 47.7 °F /  8.7 °C 40.8 °F /  4.9 °C 30.13 in /  1020.2 hPa WSW 1.0 mph /  1.6 km/h 2.0 mph /  3.2 km/h 77 % 0.00 in /  0 mm
08:58 48.1 °F /  8.9 °C 40.5 °F /  4.7 °C 30.13 in /  1020.2 hPa NNW 1.0 mph /  1.6 km/h 2.3 mph /  3.7 km/h 75 % 0.00 in /  0 mm
09:03 48.5 °F /  9.2 °C 40.9 °F /  4.9 °C 30.13 in /  1020.2 hPa North 1.4 mph /  2.3 km/h 3.5 mph /  5.6 km/h 75 % 0.00 in /  0 mm
09:08 48.7 °F /  9.3 °C 40.8 °F /  4.9 °C 30.14 in /  1020.5 hPa Calm   1.2 mph /  1.9 km/h 74 % 0.00 in /  0 mm
09:13 49.1 °F /  9.5 °C 40.5 °F /  4.7 °C 30.14 in /  1020.5 hPa Calm     72 % 0.00 in /  0 mm
09:18 49.4 °F /  9.7 °C 40.4 °F /  4.7 °C 30.13 in /  1020.2 hPa North 0.1 mph /  0.2 km/h 1.2 mph /  1.9 km/h 71 % 0.00 in /  0 mm
09:23 49.6 °F /  9.8 °C 40.6 °F /  4.8 °C 30.14 in /  1020.5 hPa NNE 1.7 mph /  2.7 km/h 3.5 mph /  5.6 km/h 71 % 0.00 in /  0 mm
09:28 50.0 °F /  10 °C 41.0 °F /  5 °C 30.14 in /  1020.5 hPa NNE 2.0 mph /  3.2 km/h 3.5 mph /  5.6 km/h 71 % 0.00 in /  0 mm
09:33 50.2 °F /  10.1 °C 40.8 °F /  4.9 °C 30.15 in /  1020.9 hPa Calm     70 % 0.00 in /  0 mm
09:38 50.3 °F /  10.2 °C 40.9 °F /  4.9 °C 30.16 in /  1021.2 hPa Calm     70 % 0.00 in /  0 mm
09:43 50.2 °F /  10.1 °C 41.5 °F /  5.3 °C 30.15 in /  1020.9 hPa NNE 0.1 mph /  0.2 km/h 1.0 mph /  1.6 km/h 72 % 0.00 in /  0 mm
09:48 50.0 °F /  10 °C 41.0 °F /  5 °C 30.15 in /  1020.9 hPa NNE 1.3 mph /  2.1 km/h 2.3 mph /  3.7 km/h 71 % 0.00 in /  0 mm
09:53 49.9 °F /  9.9 °C 41.2 °F /  5.1 °C 30.16 in /  1021.2 hPa Calm     72 % 0.00 in /  0 mm
09:58 50.0 °F /  10 °C 41.7 °F /  5.4 °C 30.15 in /  1020.9 hPa Calm     73 % 0.00 in /  0 mm
10:03 50.3 °F /  10.2 °C 41.3 °F /  5.2 °C 30.15 in /  1020.9 hPa Calm     71 % 0.00 in /  0 mm
10:08 50.5 °F /  10.3 °C 40.7 °F /  4.8 °C 30.15 in /  1020.9 hPa NE 2.4 mph /  3.9 km/h 3.5 mph /  5.6 km/h 69 % 0.00 in /  0 mm
10:13 50.6 °F /  10.3 °C 40.4 °F /  4.7 °C 30.13 in /  1020.2 hPa NE 0.3 mph /  0.5 km/h 1.2 mph /  1.9 km/h 68 % 0.00 in /  0 mm
10:18 50.8 °F /  10.4 °C 40.6 °F /  4.8 °C 30.12 in /  1019.9 hPa NE 0.7 mph /  1.1 km/h 1.2 mph /  1.9 km/h 68 % 0.00 in /  0 mm
10:20 50.9 °F /  10.5 °C 40.3 °F /  4.6 °C 30.12 in /  1019.9 hPa NE 1.4 mph /  2.3 km/h 2.3 mph /  3.7 km/h 67 % 0.00 in /  0 mm
10:25 51.0 °F /  10.6 °C 40.4 °F /  4.7 °C 30.13 in /  1020.2 hPa NE 0.2 mph /  0.3 km/h 1.2 mph /  1.9 km/h 67 % 0.00 in /  0 mm
10:30 51.0 °F /  10.6 °C 40.0 °F /  4.4 °C 30.13 in /  1020.2 hPa NE 0.9 mph /  1.4 km/h 3.5 mph /  5.6 km/h 66 % 0.00 in /  0 mm
10:35 51.0 °F /  10.6 °C 40.8 °F /  4.9 °C 30.15 in /  1020.9 hPa NE 0.2 mph /  0.3 km/h 1.2 mph /  1.9 km/h 68 % 0.00 in /  0 mm
10:40 50.9 °F /  10.5 °C 40.3 °F /  4.6 °C 30.15 in /  1020.9 hPa Calm     67 % 0.00 in /  0 mm
10:45 50.9 °F /  10.5 °C 40.7 °F /  4.8 °C 30.15 in /  1020.9 hPa NE 0.9 mph /  1.4 km/h 2.0 mph /  3.2 km/h 68 % 0.00 in /  0 mm
10:50 51.0 °F /  10.6 °C 40.8 °F /  4.9 °C 30.14 in /  1020.5 hPa NE 2.3 mph /  3.7 km/h 3.0 mph /  4.8 km/h 68 % 0.00 in /  0 mm
10:55 51.2 °F /  10.7 °C 41.0 °F /  5 °C 30.13 in /  1020.2 hPa North 2.5 mph /  4 km/h 4.0 mph /  6.4 km/h 68 % 0.00 in /  0 mm
11:00 51.2 °F /  10.7 °C 41.4 °F /  5.2 °C 30.14 in /  1020.5 hPa NNE 3.8 mph /  6.1 km/h 5.8 mph /  9.3 km/h 69 % 0.00 in /  0 mm
11:02 51.1 °F /  10.6 °C 40.9 °F /  4.9 °C 30.13 in /  1020.2 hPa NE 2.9 mph /  4.7 km/h 3.5 mph /  5.6 km/h 68 % 0.00 in /  0 mm
11:07 50.6 °F /  10.3 °C 40.8 °F /  4.9 °C 30.15 in /  1020.9 hPa North 3.7 mph /  6 km/h 5.8 mph /  9.3 km/h 69 % 0.00 in /  0 mm
11:12 49.8 °F /  9.9 °C 40.0 °F /  4.4 °C 30.13 in /  1020.2 hPa ENE 0.8 mph /  1.3 km/h 4.6 mph /  7.4 km/h 69 % 0.00 in /  0 mm
11:17 49.3 °F /  9.6 °C 40.3 °F /  4.6 °C 30.14 in /  1020.5 hPa ENE 1.0 mph /  1.6 km/h 2.0 mph /  3.2 km/h 71 % 0.00 in /  0 mm
11:22 48.6 °F /  9.2 °C 39.3 °F /  4.1 °C 30.14 in /  1020.5 hPa Calm   3.0 mph /  4.8 km/h 70 % 0.00 in /  0 mm
11:27 48.0 °F /  8.9 °C 39.1 °F /  3.9 °C 30.14 in /  1020.5 hPa Calm   3.0 mph /  4.8 km/h 71 % 0.00 in /  0 mm
11:32 47.8 °F /  8.8 °C 39.2 °F /  4 °C 30.15 in /  1020.9 hPa ESE 1.0 mph /  1.6 km/h 3.0 mph /  4.8 km/h 72 % 0.00 in /  0 mm
11:37 47.8 °F /  8.8 °C 39.5 °F /  4.2 °C 30.14 in /  1020.5 hPa Calm   2.0 mph /  3.2 km/h 73 % 0.00 in /  0 mm
11:42 47.8 °F /  8.8 °C 39.9 °F /  4.4 °C 30.15 in /  1020.9 hPa NE 2.0 mph /  3.2 km/h 5.0 mph /  8 km/h 74 % 0.00 in /  0 mm
11:47 47.9 °F /  8.8 °C 39.7 °F /  4.3 °C 30.15 in /  1020.9 hPa NE 2.0 mph /  3.2 km/h 4.0 mph /  6.4 km/h 73 % 0.00 in /  0 mm
11:52 48.0 °F /  8.9 °C 40.1 °F /  4.5 °C 30.15 in /  1020.9 hPa NNE 2.0 mph /  3.2 km/h 5.0 mph /  8 km/h 74 % 0.00 in /  0 mm
11:57 48.2 °F /  9 °C 41.0 °F /  5 °C 30.16 in /  1021.2 hPa ENE 1.6 mph /  2.6 km/h 3.5 mph /  5.6 km/h 76 % 0.00 in /  0 mm
12:02 48.4 °F /  9.1 °C 42.2 °F /  5.7 °C 30.15 in /  1020.9 hPa ENE 3.0 mph /  4.8 km/h 8.0 mph /  12.9 km/h 79 % 0.00 in /  0 mm
12:05 48.3 °F /  9.1 °C 41.4 °F /  5.2 °C 30.14 in /  1020.5 hPa East 1.8 mph /  2.9 km/h 4.6 mph /  7.4 km/h 77 % 0.00 in /  0 mm
12:10 48.4 °F /  9.1 °C 41.9 °F /  5.5 °C 30.14 in /  1020.5 hPa ENE 1.5 mph /  2.4 km/h 3.5 mph /  5.6 km/h 78 % 0.00 in /  0 mm
12:15 48.6 °F /  9.2 °C 42.0 °F /  5.6 °C 30.15 in /  1020.9 hPa ESE 0.1 mph /  0.2 km/h 1.2 mph /  1.9 km/h 78 % 0.00 in /  0 mm
12:20 48.8 °F /  9.3 °C 41.9 °F /  5.5 °C 30.16 in /  1021.2 hPa ESE 0.9 mph /  1.4 km/h 2.3 mph /  3.7 km/h 77 % 0.00 in /  0 mm
12:22 49.0 °F /  9.4 °C 42.1 °F /  5.6 °C 30.16 in /  1021.2 hPa ENE 3.1 mph /  5 km/h 4.6 mph /  7.4 km/h 77 % 0.00 in /  0 mm
12:27 49.4 °F /  9.7 °C 41.8 °F /  5.4 °C 30.15 in /  1020.9 hPa ESE 1.3 mph /  2.1 km/h 3.5 mph /  5.6 km/h 75 % 0.00 in /  0 mm
12:32 49.7 °F /  9.8 °C 42.1 °F /  5.6 °C 30.16 in /  1021.2 hPa East 1.1 mph /  1.8 km/h 2.3 mph /  3.7 km/h 75 % 0.00 in /  0 mm
12:37 50.1 °F /  10.1 °C 41.8 °F /  5.4 °C 30.17 in /  1021.6 hPa SE 0.3 mph /  0.5 km/h 3.5 mph /  5.6 km/h 73 % 0.00 in /  0 mm
12:42 50.4 °F /  10.2 °C 41.7 °F /  5.4 °C 30.17 in /  1021.6 hPa ENE 1.9 mph /  3.1 km/h 3.5 mph /  5.6 km/h 72 % 0.00 in /  0 mm
12:47 50.6 °F /  10.3 °C 41.5 °F /  5.3 °C 30.16 in /  1021.2 hPa East 2.5 mph /  4 km/h 5.0 mph /  8 km/h 71 % 0.00 in /  0 mm
12:52 50.7 °F /  10.4 °C 41.3 °F /  5.2 °C 30.16 in /  1021.2 hPa East 2.6 mph /  4.2 km/h 5.0 mph /  8 km/h 70 % 0.00 in /  0 mm
12:57 50.8 °F /  10.4 °C 41.7 °F /  5.4 °C 30.16 in /  1021.2 hPa East 3.2 mph /  5.1 km/h 5.0 mph /  8 km/h 71 % 0.00 in /  0 mm
13:02 51.2 °F /  10.7 °C 42.1 °F /  5.6 °C 30.16 in /  1021.2 hPa East 4.9 mph /  7.9 km/h 6.9 mph /  11.1 km/h 71 % 0.00 in /  0 mm
13:07 51.9 °F /  11.1 °C 42.8 °F /  6 °C 30.16 in /  1021.2 hPa ENE 6.4 mph /  10.3 km/h 9.2 mph /  14.8 km/h 71 % 0.00 in /  0 mm
13:12 52.7 °F /  11.5 °C 42.8 °F /  6 °C 30.16 in /  1021.2 hPa East 6.7 mph /  10.8 km/h 8.0 mph /  12.9 km/h 69 % 0.00 in /  0 mm
13:17 53.2 °F /  11.8 °C 42.5 °F /  5.8 °C 30.17 in /  1021.6 hPa ENE 5.2 mph /  8.4 km/h 9.0 mph /  14.5 km/h 67 % 0.00 in /  0 mm
13:22 53.2 °F /  11.8 °C 41.7 °F /  5.4 °C 30.18 in /  1021.9 hPa ENE 4.3 mph /  6.9 km/h 6.9 mph /  11.1 km/h 65 % 0.00 in /  0 mm
13:27 52.7 °F /  11.5 °C 41.7 °F /  5.4 °C 30.17 in /  1021.6 hPa East 3.9 mph /  6.3 km/h 5.8 mph /  9.3 km/h 66 % 0.00 in /  0 mm
13:32 52.5 °F /  11.4 °C 41.5 °F /  5.3 °C 30.18 in /  1021.9 hPa East 4.9 mph /  7.9 km/h 5.8 mph /  9.3 km/h 66 % 0.00 in /  0 mm
13:37 52.4 °F /  11.3 °C 41.0 °F /  5 °C 30.18 in /  1021.9 hPa East 5.0 mph /  8 km/h 6.9 mph /  11.1 km/h 65 % 0.00 in /  0 mm
13:42 52.3 °F /  11.3 °C 41.3 °F /  5.2 °C 30.17 in /  1021.6 hPa ENE 4.5 mph /  7.2 km/h 6.9 mph /  11.1 km/h 66 % 0.00 in /  0 mm
13:47 52.4 °F /  11.3 °C 41.8 °F /  5.4 °C 30.18 in /  1021.9 hPa ENE 5.0 mph /  8 km/h 6.0 mph /  9.7 km/h 67 % 0.00 in /  0 mm
13:52 52.6 °F /  11.4 °C 41.6 °F /  5.3 °C 30.18 in /  1021.9 hPa ENE 6.0 mph /  9.7 km/h 9.0 mph /  14.5 km/h 66 % 0.00 in /  0 mm
13:57 52.6 °F /  11.4 °C 41.9 °F /  5.5 °C 30.18 in /  1021.9 hPa ENE 5.4 mph /  8.7 km/h 8.1 mph /  13 km/h 67 % 0.00 in /  0 mm
14:03 52.8 °F /  11.6 °C 41.7 °F /  5.4 °C 30.17 in /  1021.6 hPa ENE 7.8 mph /  12.6 km/h 10.4 mph /  16.7 km/h 66 % 0.00 in /  0 mm
14:08 53.0 °F /  11.7 °C 41.9 °F /  5.5 °C 30.17 in /  1021.6 hPa ENE 5.9 mph /  9.5 km/h 6.9 mph /  11.1 km/h 66 % 0.00 in /  0 mm
14:13 52.9 °F /  11.6 °C 41.8 °F /  5.4 °C 30.17 in /  1021.6 hPa East 4.5 mph /  7.2 km/h 8.1 mph /  13 km/h 66 % 0.00 in /  0 mm
14:21 52.8 °F /  11.6 °C 41.7 °F /  5.4 °C 30.17 in /  1021.6 hPa ENE 7.0 mph /  11.3 km/h 7.0 mph /  11.3 km/h 66 % 0.00 in /  0 mm
14:26 52.0 °F /  11.1 °C 40.6 °F /  4.8 °C 30.17 in /  1021.6 hPa ENE 7.5 mph /  12.1 km/h 11.5 mph /  18.5 km/h 65 % 0.00 in /  0 mm
14:31 51.0 °F /  10.6 °C 40.4 °F /  4.7 °C 30.18 in /  1021.9 hPa ENE 3.6 mph /  5.8 km/h 6.9 mph /  11.1 km/h 67 % 0.00 in /  0 mm
14:36 50.0 °F /  10 °C 40.2 °F /  4.6 °C 30.18 in /  1021.9 hPa ENE 2.0 mph /  3.2 km/h 3.5 mph /  5.6 km/h 69 % 0.00 in /  0 mm
14:41 49.5 °F /  9.7 °C 40.1 °F /  4.5 °C 30.18 in /  1021.9 hPa East 3.8 mph /  6.1 km/h 7.0 mph /  11.3 km/h 70 % 0.00 in /  0 mm
14:46 49.0 °F /  9.4 °C 40.0 °F /  4.4 °C 30.18 in /  1021.9 hPa East 5.1 mph /  8.2 km/h 5.1 mph /  8.2 km/h 71 % 0.00 in /  0 mm
14:51 48.7 °F /  9.3 °C 40.4 °F /  4.7 °C 30.19 in /  1022.2 hPa East 5.1 mph /  8.2 km/h 6.9 mph /  11.1 km/h 73 % 0.00 in /  0 mm
14:56 48.4 °F /  9.1 °C 40.1 °F /  4.5 °C 30.20 in /  1022.6 hPa ENE 4.6 mph /  7.4 km/h 5.0 mph /  8 km/h 73 % 0.00 in /  0 mm
15:01 48.3 °F /  9.1 °C 40.4 °F /  4.7 °C 30.20 in /  1022.6 hPa East 5.7 mph /  9.2 km/h 6.0 mph /  9.7 km/h 74 % 0.00 in /  0 mm
15:06 48.3 °F /  9.1 °C 40.4 °F /  4.7 °C 30.18 in /  1021.9 hPa East 7.8 mph /  12.6 km/h 10.0 mph /  16.1 km/h 74 % 0.00 in /  0 mm
15:11 48.7 °F /  9.3 °C 40.8 °F /  4.9 °C 30.18 in /  1021.9 hPa East 7.2 mph /  11.6 km/h 8.1 mph /  13 km/h 74 % 0.00 in /  0 mm
15:16 49.2 °F /  9.6 °C 40.9 °F /  4.9 °C 30.18 in /  1021.9 hPa East 7.0 mph /  11.3 km/h 9.2 mph /  14.8 km/h 73 % 0.00 in /  0 mm
15:21 49.6 °F /  9.8 °C 40.9 °F /  4.9 °C 30.18 in /  1021.9 hPa East 6.3 mph /  10.1 km/h 9.2 mph /  14.8 km/h 72 % 0.00 in /  0 mm
15:26 49.9 °F /  9.9 °C 41.2 °F /  5.1 °C 30.17 in /  1021.6 hPa East 7.9 mph /  12.7 km/h 10.4 mph /  16.7 km/h 72 % 0.00 in /  0 mm
15:31 50.3 °F /  10.2 °C 41.3 °F /  5.2 °C 30.19 in /  1022.2 hPa ENE 6.4 mph /  10.3 km/h 8.1 mph /  13 km/h 71 % 0.00 in /  0 mm
15:36 50.4 °F /  10.2 °C 41.3 °F /  5.2 °C 30.19 in /  1022.2 hPa East 5.7 mph /  9.2 km/h 9.0 mph /  14.5 km/h 71 % 0.00 in /  0 mm
15:41 50.3 °F /  10.2 °C 41.3 °F /  5.2 °C 30.21 in /  1022.9 hPa ENE 5.7 mph /  9.2 km/h 8.1 mph /  13 km/h 71 % 0.00 in /  0 mm
15:46 50.1 °F /  10.1 °C 41.1 °F /  5.1 °C 30.20 in /  1022.6 hPa East 5.3 mph /  8.5 km/h 8.1 mph /  13 km/h 71 % 0.00 in /  0 mm
15:51 49.8 °F /  9.9 °C 41.1 °F /  5.1 °C 30.21 in /  1022.9 hPa ENE 4.5 mph /  7.2 km/h 7.0 mph /  11.3 km/h 72 % 0.00 in /  0 mm
15:56 49.2 °F /  9.6 °C 40.6 °F /  4.8 °C 30.21 in /  1022.9 hPa East 4.1 mph /  6.6 km/h 6.9 mph /  11.1 km/h 72 % 0.00 in /  0 mm
16:01 48.8 °F /  9.3 °C 40.5 °F /  4.7 °C 30.22 in /  1023.2 hPa ENE 3.4 mph /  5.5 km/h 4.6 mph /  7.4 km/h 73 % 0.00 in /  0 mm
16:07 48.4 °F /  9.1 °C 40.5 °F /  4.7 °C 30.22 in /  1023.2 hPa ENE 6.1 mph /  9.8 km/h 10.0 mph /  16.1 km/h 74 % 0.00 in /  0 mm
16:12 47.8 °F /  8.8 °C 40.3 °F /  4.6 °C 30.22 in /  1023.2 hPa NE 7.6 mph /  12.2 km/h 11.5 mph /  18.5 km/h 75 % 0.00 in /  0 mm
16:17 47.3 °F /  8.5 °C 40.5 °F /  4.7 °C 30.22 in /  1023.2 hPa ENE 6.9 mph /  11.1 km/h 11.0 mph /  17.7 km/h 77 % 0.00 in /  0 mm
16:22 47.0 °F /  8.3 °C 40.5 °F /  4.7 °C 30.24 in /  1023.9 hPa ENE 7.4 mph /  11.9 km/h 10.4 mph /  16.7 km/h 78 % 0.00 in /  0 mm
16:27 46.7 °F /  8.2 °C 40.2 °F /  4.6 °C 30.25 in /  1024.3 hPa ENE 5.9 mph /  9.5 km/h 9.2 mph /  14.8 km/h 78 % 0.00 in /  0 mm
16:32 46.4 °F /  8 °C 40.2 °F /  4.6 °C 30.25 in /  1024.3 hPa NE 8.7 mph /  14 km/h 12.0 mph /  19.3 km/h 79 % 0.00 in /  0 mm
16:37 45.8 °F /  7.7 °C 40.0 °F /  4.4 °C 30.25 in /  1024.3 hPa NE 9.5 mph /  15.3 km/h 13.8 mph /  22.2 km/h 80 % 0.00 in /  0 mm
16:42 45.4 °F /  7.4 °C 39.9 °F /  4.4 °C 30.25 in /  1024.3 hPa ENE 8.0 mph /  12.9 km/h 11.5 mph /  18.5 km/h 81 % 0.00 in /  0 mm
16:47 45.1 °F /  7.3 °C 39.6 °F /  4.2 °C 30.26 in /  1024.6 hPa East 9.5 mph /  15.3 km/h 12.7 mph /  20.4 km/h 81 % 0.00 in /  0 mm
16:52 44.7 °F /  7.1 °C 39.5 °F /  4.2 °C 30.26 in /  1024.6 hPa ENE 7.1 mph /  11.4 km/h 9.2 mph /  14.8 km/h 82 % 0.00 in /  0 mm
16:57 44.4 °F /  6.9 °C 39.6 °F /  4.2 °C 30.27 in /  1024.9 hPa ENE 9.5 mph /  15.3 km/h 13.8 mph /  22.2 km/h 83 % 0.00 in /  0 mm
17:02 44.2 °F /  6.8 °C 39.7 °F /  4.3 °C 30.26 in /  1024.6 hPa ENE 9.2 mph /  14.8 km/h 15.0 mph /  24.1 km/h 84 % 0.00 in /  0 mm
17:07 44.1 °F /  6.7 °C 39.6 °F /  4.2 °C 30.24 in /  1023.9 hPa NE 8.6 mph /  13.8 km/h 11.0 mph /  17.7 km/h 84 % 0.00 in /  0 mm
17:12 44.0 °F /  6.7 °C 39.5 °F /  4.2 °C 30.25 in /  1024.3 hPa ENE 5.9 mph /  9.5 km/h 9.2 mph /  14.8 km/h 84 % 0.00 in /  0 mm
17:17 43.9 °F /  6.6 °C 39.7 °F /  4.3 °C 30.25 in /  1024.3 hPa ENE 6.2 mph /  10 km/h 10.4 mph /  16.7 km/h 85 % 0.00 in /  0 mm
17:22 43.8 °F /  6.6 °C 39.6 °F /  4.2 °C 30.25 in /  1024.3 hPa East 5.8 mph /  9.3 km/h 10.4 mph /  16.7 km/h 85 % 0.00 in /  0 mm
17:27 43.7 °F /  6.5 °C 39.5 °F /  4.2 °C 30.25 in /  1024.3 hPa East 6.8 mph /  10.9 km/h 10.0 mph /  16.1 km/h 85 % 0.00 in /  0 mm
17:32 43.7 °F /  6.5 °C 39.8 °F /  4.3 °C 30.25 in /  1024.3 hPa East 6.9 mph /  11.1 km/h 8.1 mph /  13 km/h 86 % 0.00 in /  0 mm
17:37 43.7 °F /  6.5 °C 39.8 °F /  4.3 °C 30.25 in /  1024.3 hPa East 7.7 mph /  12.4 km/h 9.2 mph /  14.8 km/h 86 % 0.00 in /  0 mm
17:42 43.7 °F /  6.5 °C 39.8 °F /  4.3 °C 30.24 in /  1023.9 hPa East 7.6 mph /  12.2 km/h 9.2 mph /  14.8 km/h 86 % 0.00 in /  0 mm
17:47 43.8 °F /  6.6 °C 39.9 °F /  4.4 °C 30.23 in /  1023.6 hPa East 2.9 mph /  4.7 km/h 6.0 mph /  9.7 km/h 86 % 0.00 in /  0 mm
17:52 43.9 °F /  6.6 °C 40.0 °F /  4.4 °C 30.23 in /  1023.6 hPa East 5.3 mph /  8.5 km/h 6.9 mph /  11.1 km/h 86 % 0.00 in /  0 mm
17:57 44.0 °F /  6.7 °C 39.8 °F /  4.3 °C 30.23 in /  1023.6 hPa East 3.2 mph /  5.1 km/h 6.9 mph /  11.1 km/h 85 % 0.00 in /  0 mm
18:07 44.1 °F /  6.7 °C 39.9 °F /  4.4 °C 30.23 in /  1023.6 hPa SE 1.4 mph /  2.3 km/h 3.5 mph /  5.6 km/h 85 % 0.00 in /  0 mm
18:12 44.2 °F /  6.8 °C 40.0 °F /  4.4 °C 30.23 in /  1023.6 hPa SE 0.4 mph /  0.6 km/h 2.3 mph /  3.7 km/h 85 % 0.00 in /  0 mm
18:17 44.2 °F /  6.8 °C 40.0 °F /  4.4 °C 30.23 in /  1023.6 hPa SE 0.8 mph /  1.3 km/h 2.3 mph /  3.7 km/h 85 % 0.00 in /  0 mm
18:22 44.3 °F /  6.8 °C 39.8 °F /  4.3 °C 30.23 in /  1023.6 hPa Calm     84 % 0.00 in /  0 mm
18:27 44.4 °F /  6.9 °C 39.9 °F /  4.4 °C 30.24 in /  1023.9 hPa Calm     84 % 0.00 in /  0 mm
18:32 44.4 °F /  6.9 °C 39.9 °F /  4.4 °C 30.25 in /  1024.3 hPa NNE 2.2 mph /  3.5 km/h 3.5 mph /  5.6 km/h 84 % 0.00 in /  0 mm
18:37 44.5 °F /  6.9 °C 40.0 °F /  4.4 °C 30.25 in /  1024.3 hPa North 3.4 mph /  5.5 km/h 8.0 mph /  12.9 km/h 84 % 0.00 in /  0 mm
18:42 44.3 °F /  6.8 °C 39.8 °F /  4.3 °C 30.25 in /  1024.3 hPa NNE 5.0 mph /  8 km/h 6.0 mph /  9.7 km/h 84 % 0.00 in /  0 mm
18:47 44.2 °F /  6.8 °C 39.7 °F /  4.3 °C 30.25 in /  1024.3 hPa NNE 3.0 mph /  4.8 km/h 7.0 mph /  11.3 km/h 84 % 0.00 in /  0 mm
18:52 43.9 °F /  6.6 °C 39.4 °F /  4.1 °C 30.26 in /  1024.6 hPa NNE 6.0 mph /  9.7 km/h 8.0 mph /  12.9 km/h 84 % 0.00 in /  0 mm
18:57 43.6 °F /  6.4 °C 39.4 °F /  4.1 °C 30.26 in /  1024.6 hPa NNE 3.7 mph /  6 km/h 3.7 mph /  6 km/h 85 % 0.00 in /  0 mm
19:02 43.4 °F /  6.3 °C 39.2 °F /  4 °C 30.26 in /  1024.6 hPa NE 2.7 mph /  4.3 km/h 4.6 mph /  7.4 km/h 85 % 0.00 in /  0 mm
19:07 43.1 °F /  6.2 °C 39.2 °F /  4 °C 30.28 in /  1025.3 hPa NE 3.0 mph /  4.8 km/h 6.0 mph /  9.7 km/h 86 % 0.00 in /  0 mm
19:12 42.7 °F /  5.9 °C 39.1 °F /  3.9 °C 30.28 in /  1025.3 hPa NNE 7.0 mph /  11.3 km/h 10.0 mph /  16.1 km/h 87 % 0.00 in /  0 mm
19:17 42.4 °F /  5.8 °C 38.8 °F /  3.8 °C 30.28 in /  1025.3 hPa NNE 4.3 mph /  6.9 km/h 8.1 mph /  13 km/h 87 % 0.00 in /  0 mm
19:22 42.2 °F /  5.7 °C 38.9 °F /  3.8 °C 30.29 in /  1025.6 hPa NE 2.0 mph /  3.2 km/h 5.8 mph /  9.3 km/h 88 % 0.00 in /  0 mm
19:27 42.0 °F /  5.6 °C 38.7 °F /  3.7 °C 30.30 in /  1026 hPa NNE 3.0 mph /  4.8 km/h 7.0 mph /  11.3 km/h 88 % 0.00 in /  0 mm
19:32 41.9 °F /  5.5 °C 38.9 °F /  3.8 °C 30.30 in /  1026 hPa NNE 3.0 mph /  4.8 km/h 7.0 mph /  11.3 km/h 89 % 0.00 in /  0 mm
19:37 41.8 °F /  5.4 °C 38.8 °F /  3.8 °C 30.30 in /  1026 hPa NE 2.0 mph /  3.2 km/h 7.0 mph /  11.3 km/h 89 % 0.00 in /  0 mm
19:42 41.8 °F /  5.4 °C 39.1 °F /  3.9 °C 30.31 in /  1026.3 hPa NE 3.0 mph /  4.8 km/h 6.0 mph /  9.7 km/h 90 % 0.00 in /  0 mm
19:47 41.7 °F /  5.4 °C 39.0 °F /  3.9 °C 30.31 in /  1026.3 hPa NE 5.0 mph /  8 km/h 8.0 mph /  12.9 km/h 90 % 0.00 in /  0 mm
19:52 41.7 °F /  5.4 °C 39.0 °F /  3.9 °C 30.32 in /  1026.6 hPa NE 5.0 mph /  8 km/h 12.0 mph /  19.3 km/h 90 % 0.00 in /  0 mm
19:58 41.7 °F /  5.4 °C 39.0 °F /  3.9 °C 30.32 in /  1026.6 hPa NNE 5.1 mph /  8.2 km/h 9.2 mph /  14.8 km/h 90 % 0.00 in /  0 mm
20:03 41.7 °F /  5.4 °C 39.3 °F /  4.1 °C 30.33 in /  1027 hPa NNE 5.0 mph /  8 km/h 9.2 mph /  14.8 km/h 91 % 0.00 in /  0 mm
20:08 41.7 °F /  5.4 °C 39.3 °F /  4.1 °C 30.33 in /  1027 hPa NE 3.6 mph /  5.8 km/h 6.9 mph /  11.1 km/h 91 % 0.00 in /  0 mm
20:13 41.7 °F /  5.4 °C 39.0 °F /  3.9 °C 30.32 in /  1026.6 hPa ENE 3.7 mph /  6 km/h 8.0 mph /  12.9 km/h 90 % 0.00 in /  0 mm
20:18 41.6 °F /  5.3 °C 38.9 °F /  3.8 °C 30.32 in /  1026.6 hPa ENE 3.8 mph /  6.1 km/h 4.0 mph /  6.4 km/h 90 % 0.00 in /  0 mm
20:22 41.6 °F /  5.3 °C 38.9 °F /  3.8 °C 30.32 in /  1026.6 hPa ENE 2.6 mph /  4.2 km/h 4.6 mph /  7.4 km/h 90 % 0.00 in /  0 mm
20:28 41.7 °F /  5.4 °C 39.0 °F /  3.9 °C 30.33 in /  1027 hPa ENE 4.0 mph /  6.4 km/h 6.9 mph /  11.1 km/h 90 % 0.00 in /  0 mm
20:33 41.6 °F /  5.3 °C 38.9 °F /  3.8 °C 30.32 in /  1026.6 hPa East 1.9 mph /  3.1 km/h 5.0 mph /  8 km/h 90 % 0.00 in /  0 mm
20:38 41.6 °F /  5.3 °C 38.9 °F /  3.8 °C 30.31 in /  1026.3 hPa SSE 2.6 mph /  4.2 km/h 4.6 mph /  7.4 km/h 90 % 0.00 in /  0 mm
20:43 41.7 °F /  5.4 °C 39.0 °F /  3.9 °C 30.33 in /  1027 hPa NE 3.0 mph /  4.8 km/h 3.5 mph /  5.6 km/h 90 % 0.00 in /  0 mm
20:48 41.8 °F /  5.4 °C 39.1 °F /  3.9 °C 30.34 in /  1027.3 hPa ENE 2.4 mph /  3.9 km/h 3.5 mph /  5.6 km/h 90 % 0.00 in /  0 mm
20:53 41.9 °F /  5.5 °C 39.2 °F /  4 °C 30.34 in /  1027.3 hPa ENE 5.0 mph /  8 km/h 7.0 mph /  11.3 km/h 90 % 0.00 in /  0 mm
20:58 41.8 °F /  5.4 °C 39.1 °F /  3.9 °C 30.34 in /  1027.3 hPa ENE 2.3 mph /  3.7 km/h 4.6 mph /  7.4 km/h 90 % 0.00 in /  0 mm
21:03 41.7 °F /  5.4 °C 39.0 °F /  3.9 °C 30.34 in /  1027.3 hPa East 2.6 mph /  4.2 km/h 5.0 mph /  8 km/h 90 % 0.00 in /  0 mm
21:08 41.5 °F /  5.3 °C 38.8 °F /  3.8 °C 30.35 in /  1027.7 hPa East 2.0 mph /  3.2 km/h 4.6 mph /  7.4 km/h 90 % 0.00 in /  0 mm
21:13 41.4 °F /  5.2 °C 38.7 °F /  3.7 °C 30.35 in /  1027.7 hPa ENE 2.3 mph /  3.7 km/h 4.6 mph /  7.4 km/h 90 % 0.00 in /  0 mm
21:18 41.3 °F /  5.2 °C 38.6 °F /  3.7 °C 30.35 in /  1027.7 hPa ENE 3.8 mph /  6.1 km/h 5.0 mph /  8 km/h 90 % 0.00 in /  0 mm
21:23 41.2 °F /  5.1 °C 38.5 °F /  3.6 °C 30.35 in /  1027.7 hPa ENE 2.7 mph /  4.3 km/h 4.0 mph /  6.4 km/h 90 % 0.00 in /  0 mm
21:28 41.1 °F /  5.1 °C 38.4 °F /  3.6 °C 30.35 in /  1027.7 hPa ENE 3.1 mph /  5 km/h 6.9 mph /  11.1 km/h 90 % 0.00 in /  0 mm
21:34 41.0 °F /  5 °C 38.3 °F /  3.5 °C 30.35 in /  1027.7 hPa ENE 3.1 mph /  5 km/h 5.0 mph /  8 km/h 90 % 0.00 in /  0 mm
21:39 40.9 °F /  4.9 °C 38.2 °F /  3.4 °C 30.35 in /  1027.7 hPa ENE 6.7 mph /  10.8 km/h 9.0 mph /  14.5 km/h 90 % 0.00 in /  0 mm
21:44 40.8 °F /  4.9 °C 38.1 °F /  3.4 °C 30.35 in /  1027.7 hPa ENE 4.7 mph /  7.6 km/h 7.0 mph /  11.3 km/h 90 % 0.00 in /  0 mm
21:49 40.8 °F /  4.9 °C 38.4 °F /  3.6 °C 30.35 in /  1027.7 hPa ENE 5.7 mph /  9.2 km/h 8.1 mph /  13 km/h 91 % 0.00 in /  0 mm
21:54 40.7 °F /  4.8 °C 38.3 °F /  3.5 °C 30.35 in /  1027.7 hPa ENE 3.9 mph /  6.3 km/h 8.1 mph /  13 km/h 91 % 0.00 in /  0 mm
21:59 40.7 °F /  4.8 °C 38.3 °F /  3.5 °C 30.36 in /  1028 hPa ENE 4.4 mph /  7.1 km/h 8.1 mph /  13 km/h 91 % 0.00 in /  0 mm
22:04 40.7 °F /  4.8 °C 38.3 °F /  3.5 °C 30.36 in /  1028 hPa ENE 3.3 mph /  5.3 km/h 5.0 mph /  8 km/h 91 % 0.00 in /  0 mm
22:09 40.7 °F /  4.8 °C 38.3 °F /  3.5 °C 30.36 in /  1028 hPa NE 5.2 mph /  8.4 km/h 9.2 mph /  14.8 km/h 91 % 0.00 in /  0 mm
22:10 40.7 °F /  4.8 °C 38.3 °F /  3.5 °C 30.36 in /  1028 hPa ENE 5.5 mph /  8.9 km/h 9.2 mph /  14.8 km/h 91 % 0.00 in /  0 mm
22:15 40.6 °F /  4.8 °C 38.2 °F /  3.4 °C 30.36 in /  1028 hPa NNE 3.0 mph /  4.8 km/h 5.0 mph /  8 km/h 91 % 0.00 in /  0 mm
22:20 40.7 °F /  4.8 °C 38.3 °F /  3.5 °C 30.36 in /  1028 hPa ENE 4.6 mph /  7.4 km/h 8.1 mph /  13 km/h 91 % 0.00 in /  0 mm
22:25 40.6 °F /  4.8 °C 37.9 °F /  3.3 °C 30.36 in /  1028 hPa ENE 3.7 mph /  6 km/h 8.1 mph /  13 km/h 90 % 0.00 in /  0 mm
22:30 40.6 °F /  4.8 °C 37.9 °F /  3.3 °C 30.36 in /  1028 hPa NE 3.6 mph /  5.8 km/h 8.1 mph /  13 km/h 90 % 0.00 in /  0 mm
22:35 40.5 °F /  4.7 °C 37.8 °F /  3.2 °C 30.36 in /  1028 hPa ENE 4.3 mph /  6.9 km/h 8.1 mph /  13 km/h 90 % 0.00 in /  0 mm
22:40 40.5 °F /  4.7 °C 37.8 °F /  3.2 °C 30.36 in /  1028 hPa NE 3.9 mph /  6.3 km/h 8.1 mph /  13 km/h 90 % 0.00 in /  0 mm
22:45 40.5 °F /  4.7 °C 37.8 °F /  3.2 °C 30.36 in /  1028 hPa ENE 5.5 mph /  8.9 km/h 9.0 mph /  14.5 km/h 90 % 0.00 in /  0 mm
22:50 40.4 °F /  4.7 °C 37.7 °F /  3.2 °C 30.36 in /  1028 hPa ENE 6.7 mph /  10.8 km/h 10.4 mph /  16.7 km/h 90 % 0.00 in /  0 mm
22:55 40.3 °F /  4.6 °C 37.6 °F /  3.1 °C 30.36 in /  1028 hPa NE 4.5 mph /  7.2 km/h 5.0 mph /  8 km/h 90 % 0.00 in /  0 mm
23:00 40.2 °F /  4.6 °C 37.8 °F /  3.2 °C 30.36 in /  1028 hPa ENE 6.6 mph /  10.6 km/h 10.4 mph /  16.7 km/h 91 % 0.00 in /  0 mm
23:05 40.2 °F /  4.6 °C 37.8 °F /  3.2 °C 30.36 in /  1028 hPa ENE 4.6 mph /  7.4 km/h 8.1 mph /  13 km/h 91 % 0.00 in /  0 mm
23:10 40.1 °F /  4.5 °C 37.7 °F /  3.2 °C 30.37 in /  1028.3 hPa ENE 3.9 mph /  6.3 km/h 6.9 mph /  11.1 km/h 91 % 0.00 in /  0 mm
23:15 40.1 °F /  4.5 °C 37.7 °F /  3.2 °C 30.37 in /  1028.3 hPa ENE 4.3 mph /  6.9 km/h 6.9 mph /  11.1 km/h 91 % 0.00 in /  0 mm
23:20 40.1 °F /  4.5 °C 37.7 °F /  3.2 °C 30.37 in /  1028.3 hPa ENE 4.9 mph /  7.9 km/h 5.8 mph /  9.3 km/h 91 % 0.00 in /  0 mm
23:26 40.0 °F /  4.4 °C 37.6 °F /  3.1 °C 30.37 in /  1028.3 hPa NE 4.7 mph /  7.6 km/h 6.9 mph /  11.1 km/h 91 % 0.00 in /  0 mm
23:31 40.0 °F /  4.4 °C 37.6 °F /  3.1 °C 30.37 in /  1028.3 hPa ENE 5.3 mph /  8.5 km/h 8.1 mph /  13 km/h 91 % 0.00 in /  0 mm
23:36 40.0 °F /  4.4 °C 37.6 °F /  3.1 °C 30.37 in /  1028.3 hPa ENE 3.6 mph /  5.8 km/h 8.1 mph /  13 km/h 91 % 0.00 in /  0 mm
23:41 39.9 °F /  4.4 °C 37.5 °F /  3.1 °C 30.37 in /  1028.3 hPa NNE 2.6 mph /  4.2 km/h 4.6 mph /  7.4 km/h 91 % 0.00 in /  0 mm
23:46 39.9 °F /  4.4 °C 37.5 °F /  3.1 °C 30.37 in /  1028.3 hPa NE 2.4 mph /  3.9 km/h 5.8 mph /  9.3 km/h 91 % 0.00 in /  0 mm
23:51 39.9 °F /  4.4 °C 37.5 °F /  3.1 °C 30.37 in /  1028.3 hPa NNE 3.1 mph /  5 km/h 4.6 mph /  7.4 km/h 91 % 0.00 in /  0 mm
23:56 39.9 °F /  4.4 °C 37.5 °F /  3.1 °C 30.38 in /  1028.7 hPa NNE 4.2 mph /  6.8 km/h 6.9 mph /  11.1 km/h 91 % 0.00 in /  0 mm
Crab Meadow Weather
Compliments of Weather Underground - 3 mb

Script developed by  Jim McMurry - jmcmurry@mwt.net Adapted for the template by  Wim van der Kuil - Leuven-Template.eu

Temperature: You can tell the temperature by counting the clicks a cricket makes in 15 seconds and adding 37!